sensor_id;sensor_type;location;lat;lon;timestamp;P1;durP1;ratioP1;P2;durP2;ratioP2
10166;SDS011;62970;53.130;8.244;2023-02-27T00:00:05;11.57;;;8.63;;
10166;SDS011;62970;53.130;8.244;2023-02-27T00:02:39;11.23;;;8.10;;
10166;SDS011;62970;53.130;8.244;2023-02-27T00:05:09;11.70;;;8.03;;
10166;SDS011;62970;53.130;8.244;2023-02-27T00:07:43;9.83;;;7.87;;
10166;SDS011;62970;53.130;8.244;2023-02-27T00:10:13;13.87;;;8.47;;
10166;SDS011;62970;53.130;8.244;2023-02-27T00:12:45;11.90;;;8.37;;
10166;SDS011;62970;53.130;8.244;2023-02-27T00:15:15;10.10;;;7.70;;
10166;SDS011;62970;53.130;8.244;2023-02-27T00:17:47;10.87;;;7.83;;
10166;SDS011;62970;53.130;8.244;2023-02-27T00:20:17;9.63;;;7.33;;
10166;SDS011;62970;53.130;8.244;2023-02-27T00:22:52;10.33;;;7.50;;
10166;SDS011;62970;53.130;8.244;2023-02-27T00:25:21;9.93;;;7.20;;
10166;SDS011;62970;53.130;8.244;2023-02-27T00:27:56;10.67;;;8.20;;
10166;SDS011;62970;53.130;8.244;2023-02-27T00:30:28;11.20;;;8.23;;
10166;SDS011;62970;53.130;8.244;2023-02-27T00:32:58;8.20;;;6.83;;
10166;SDS011;62970;53.130;8.244;2023-02-27T00:35:27;9.27;;;7.73;;
10166;SDS011;62970;53.130;8.244;2023-02-27T00:38:02;9.07;;;7.30;;
10166;SDS011;62970;53.130;8.244;2023-02-27T00:40:32;9.70;;;7.10;;
10166;SDS011;62970;53.130;8.244;2023-02-27T00:43:08;9.83;;;7.40;;
10166;SDS011;62970;53.130;8.244;2023-02-27T00:45:37;9.97;;;6.87;;
10166;SDS011;62970;53.130;8.244;2023-02-27T00:48:07;10.20;;;7.47;;
10166;SDS011;62970;53.130;8.244;2023-02-27T00:50:36;9.37;;;7.63;;
10166;SDS011;62970;53.130;8.244;2023-02-27T00:53:12;10.90;;;7.23;;
10166;SDS011;62970;53.130;8.244;2023-02-27T00:55:48;10.70;;;7.87;;
10166;SDS011;62970;53.130;8.244;2023-02-27T00:58:18;12.30;;;8.13;;
10166;SDS011;62970;53.130;8.244;2023-02-27T01:00:47;9.93;;;7.30;;
10166;SDS011;62970;53.130;8.244;2023-02-27T01:03:18;9.27;;;7.30;;
10166;SDS011;62970;53.130;8.244;2023-02-27T01:05:50;11.80;;;7.33;;
10166;SDS011;62970;53.130;8.244;2023-02-27T01:08:25;11.13;;;7.67;;
10166;SDS011;62970;53.130;8.244;2023-02-27T01:10:56;9.17;;;6.93;;
10166;SDS011;62970;53.130;8.244;2023-02-27T01:13:25;10.00;;;7.33;;
10166;SDS011;62970;53.130;8.244;2023-02-27T01:15:54;8.60;;;6.87;;
10166;SDS011;62970;53.130;8.244;2023-02-27T01:18:30;8.40;;;7.27;;
10166;SDS011;62970;53.130;8.244;2023-02-27T01:20:59;11.80;;;8.17;;
10166;SDS011;62970;53.130;8.244;2023-02-27T01:23:32;8.70;;;7.07;;
10166;SDS011;62970;53.130;8.244;2023-02-27T01:26:02;7.73;;;6.93;;
10166;SDS011;62970;53.130;8.244;2023-02-27T01:28:33;7.90;;;6.70;;
10166;SDS011;62970;53.130;8.244;2023-02-27T01:31:05;9.80;;;7.57;;
10166;SDS011;62970;53.130;8.244;2023-02-27T01:33:37;8.77;;;7.00;;
10166;SDS011;62970;53.130;8.244;2023-02-27T01:36:08;9.20;;;7.20;;
10166;SDS011;62970;53.130;8.244;2023-02-27T01:38:41;10.10;;;6.93;;
10166;SDS011;62970;53.130;8.244;2023-02-27T01:41:13;8.63;;;6.97;;
10166;SDS011;62970;53.130;8.244;2023-02-27T01:43:52;8.83;;;7.10;;
10166;SDS011;62970;53.130;8.244;2023-02-27T01:46:30;9.20;;;6.83;;
10166;SDS011;62970;53.130;8.244;2023-02-27T01:49:04;10.93;;;7.47;;
10166;SDS011;62970;53.130;8.244;2023-02-27T01:51:41;10.17;;;7.53;;
10166;SDS011;62970;53.130;8.244;2023-02-27T01:54:23;9.63;;;7.17;;
10166;SDS011;62970;53.130;8.244;2023-02-27T01:56:53;9.97;;;7.17;;
10166;SDS011;62970;53.130;8.244;2023-02-27T01:59:26;9.10;;;7.33;;
10166;SDS011;62970;53.130;8.244;2023-02-27T02:01:56;9.27;;;7.10;;
10166;SDS011;62970;53.130;8.244;2023-02-27T02:04:28;11.47;;;6.93;;
10166;SDS011;62970;53.130;8.244;2023-02-27T02:07:01;10.47;;;7.50;;
10166;SDS011;62970;53.130;8.244;2023-02-27T02:09:39;9.47;;;7.03;;
10166;SDS011;62970;53.130;8.244;2023-02-27T02:12:17;9.97;;;6.90;;
10166;SDS011;62970;53.130;8.244;2023-02-27T02:14:52;9.13;;;6.83;;
10166;SDS011;62970;53.130;8.244;2023-02-27T02:17:23;8.40;;;6.63;;
10166;SDS011;62970;53.130;8.244;2023-02-27T02:23:37;7.97;;;6.00;;
10166;SDS011;62970;53.130;8.244;2023-02-27T02:26:49;8.37;;;5.87;;
10166;SDS011;62970;53.130;8.244;2023-02-27T02:29:36;7.43;;;5.77;;
10166;SDS011;62970;53.130;8.244;2023-02-27T02:33:16;7.50;;;5.57;;
10166;SDS011;62970;53.130;8.244;2023-02-27T02:39:50;6.93;;;5.07;;
10166;SDS011;62970;53.130;8.244;2023-02-27T02:42:35;7.20;;;5.23;;
10166;SDS011;62970;53.130;8.244;2023-02-27T02:45:14;9.20;;;5.53;;
10166;SDS011;62970;53.130;8.244;2023-02-27T02:47:54;6.97;;;5.30;;
10166;SDS011;62970;53.130;8.244;2023-02-27T02:50:40;5.77;;;5.10;;
10166;SDS011;62970;53.130;8.244;2023-02-27T02:53:20;7.17;;;4.80;;
10166;SDS011;62970;53.130;8.244;2023-02-27T02:56:04;5.63;;;4.90;;
10166;SDS011;62970;53.130;8.244;2023-02-27T02:58:45;6.27;;;5.30;;
10166;SDS011;62970;53.130;8.244;2023-02-27T03:01:25;6.83;;;5.17;;
10166;SDS011;62970;53.130;8.244;2023-02-27T03:04:03;6.30;;;4.73;;
10166;SDS011;62970;53.130;8.244;2023-02-27T03:06:40;5.40;;;4.60;;
10166;SDS011;62970;53.130;8.244;2023-02-27T03:09:16;7.13;;;4.80;;
10166;SDS011;62970;53.130;8.244;2023-02-27T03:11:54;7.10;;;5.07;;
10166;SDS011;62970;53.130;8.244;2023-02-27T03:14:28;6.80;;;4.93;;
10166;SDS011;62970;53.130;8.244;2023-02-27T03:17:04;6.30;;;5.00;;
10166;SDS011;62970;53.130;8.244;2023-02-27T03:19:40;5.93;;;4.73;;
10166;SDS011;62970;53.130;8.244;2023-02-27T03:22:15;7.23;;;4.70;;
10166;SDS011;62970;53.130;8.244;2023-02-27T03:24:56;6.77;;;4.80;;
10166;SDS011;62970;53.130;8.244;2023-02-27T03:27:33;6.73;;;4.97;;
10166;SDS011;62970;53.130;8.244;2023-02-27T03:30:09;7.07;;;4.53;;
10166;SDS011;62970;53.130;8.244;2023-02-27T03:32:47;7.00;;;4.80;;
10166;SDS011;62970;53.130;8.244;2023-02-27T03:35:29;4.57;;;4.13;;
10166;SDS011;62970;53.130;8.244;2023-02-27T03:38:13;6.90;;;4.57;;
10166;SDS011;62970;53.130;8.244;2023-02-27T03:40:53;7.67;;;4.40;;
10166;SDS011;62970;53.130;8.244;2023-02-27T03:43:37;6.33;;;4.33;;
10166;SDS011;62970;53.130;8.244;2023-02-27T03:46:21;5.43;;;4.10;;
10166;SDS011;62970;53.130;8.244;2023-02-27T03:48:55;6.67;;;4.50;;
10166;SDS011;62970;53.130;8.244;2023-02-27T03:51:24;5.87;;;4.40;;
10166;SDS011;62970;53.130;8.244;2023-02-27T03:53:56;5.27;;;4.10;;
10166;SDS011;62970;53.130;8.244;2023-02-27T03:56:31;5.37;;;4.13;;
10166;SDS011;62970;53.130;8.244;2023-02-27T03:59:10;5.60;;;4.23;;
10166;SDS011;62970;53.130;8.244;2023-02-27T04:01:40;5.23;;;4.13;;
10166;SDS011;62970;53.130;8.244;2023-02-27T04:04:11;5.90;;;4.33;;
10166;SDS011;62970;53.130;8.244;2023-02-27T04:06:48;6.43;;;3.93;;
10166;SDS011;62970;53.130;8.244;2023-02-27T04:09:38;5.07;;;4.30;;
10166;SDS011;62970;53.130;8.244;2023-02-27T04:12:38;5.30;;;4.50;;
10166;SDS011;62970;53.130;8.244;2023-02-27T04:15:41;5.33;;;4.00;;
10166;SDS011;62970;53.130;8.244;2023-02-27T04:18:50;5.20;;;3.90;;
10166;SDS011;62970;53.130;8.244;2023-02-27T04:21:35;5.27;;;4.13;;
10166;SDS011;62970;53.130;8.244;2023-02-27T04:24:14;4.67;;;3.93;;
10166;SDS011;62970;53.130;8.244;2023-02-27T04:26:56;5.43;;;4.40;;
10166;SDS011;62970;53.130;8.244;2023-02-27T04:29:37;4.20;;;3.80;;
10166;SDS011;62970;53.130;8.244;2023-02-27T04:32:22;5.97;;;3.83;;
10166;SDS011;62970;53.130;8.244;2023-02-27T04:35:15;4.90;;;3.77;;
10166;SDS011;62970;53.130;8.244;2023-02-27T04:37:54;6.53;;;3.90;;
10166;SDS011;62970;53.130;8.244;2023-02-27T04:40:32;5.50;;;4.30;;
10166;SDS011;62970;53.130;8.244;2023-02-27T04:43:08;5.57;;;4.40;;
10166;SDS011;62970;53.130;8.244;2023-02-27T04:45:41;7.90;;;4.20;;
10166;SDS011;62970;53.130;8.244;2023-02-27T04:48:17;5.87;;;4.00;;
10166;SDS011;62970;53.130;8.244;2023-02-27T04:50:53;4.47;;;3.73;;
10166;SDS011;62970;53.130;8.244;2023-02-27T04:53:30;4.70;;;4.03;;
10166;SDS011;62970;53.130;8.244;2023-02-27T04:56:15;6.23;;;4.27;;
10166;SDS011;62970;53.130;8.244;2023-02-27T04:58:50;6.27;;;4.00;;
10166;SDS011;62970;53.130;8.244;2023-02-27T05:01:38;5.67;;;3.97;;
10166;SDS011;62970;53.130;8.244;2023-02-27T05:04:18;5.53;;;4.00;;
10166;SDS011;62970;53.130;8.244;2023-02-27T05:06:54;5.37;;;3.77;;
10166;SDS011;62970;53.130;8.244;2023-02-27T05:09:34;5.50;;;3.90;;
10166;SDS011;62970;53.130;8.244;2023-02-27T05:12:11;5.13;;;4.33;;
10166;SDS011;62970;53.130;8.244;2023-02-27T05:14:49;5.07;;;4.07;;
10166;SDS011;62970;53.130;8.244;2023-02-27T05:17:25;5.43;;;4.07;;
10166;SDS011;62970;53.130;8.244;2023-02-27T05:20:04;6.83;;;4.27;;
10166;SDS011;62970;53.130;8.244;2023-02-27T05:22:39;5.40;;;3.73;;
10166;SDS011;62970;53.130;8.244;2023-02-27T05:25:19;4.97;;;3.70;;
10166;SDS011;62970;53.130;8.244;2023-02-27T05:27:57;4.07;;;3.63;;
10166;SDS011;62970;53.130;8.244;2023-02-27T05:30:35;5.30;;;3.70;;
10166;SDS011;62970;53.130;8.244;2023-02-27T05:33:19;5.07;;;3.67;;
10166;SDS011;62970;53.130;8.244;2023-02-27T05:36:05;4.47;;;3.63;;
10166;SDS011;62970;53.130;8.244;2023-02-27T05:38:44;4.87;;;4.23;;
10166;SDS011;62970;53.130;8.244;2023-02-27T05:41:18;4.83;;;3.80;;
10166;SDS011;62970;53.130;8.244;2023-02-27T05:44:00;4.13;;;3.73;;
10166;SDS011;62970;53.130;8.244;2023-02-27T05:46:36;5.47;;;3.77;;
10166;SDS011;62970;53.130;8.244;2023-02-27T05:49:12;5.27;;;4.00;;
10166;SDS011;62970;53.130;8.244;2023-02-27T05:51:54;7.37;;;4.80;;
10166;SDS011;62970;53.130;8.244;2023-02-27T05:54:31;5.80;;;4.20;;
10166;SDS011;62970;53.130;8.244;2023-02-27T05:57:14;6.47;;;4.93;;
10166;SDS011;62970;53.130;8.244;2023-02-27T05:59:53;5.53;;;4.30;;
10166;SDS011;62970;53.130;8.244;2023-02-27T06:02:31;5.70;;;4.10;;
10166;SDS011;62970;53.130;8.244;2023-02-27T06:10:16;6.17;;;4.37;;
10166;SDS011;62970;53.130;8.244;2023-02-27T06:25:49;6.30;;;4.50;;
10166;SDS011;62970;53.130;8.244;2023-02-27T06:28:22;7.37;;;4.20;;
10166;SDS011;62970;53.130;8.244;2023-02-27T06:30:57;5.50;;;4.50;;
10166;SDS011;62970;53.130;8.244;2023-02-27T06:33:27;6.27;;;4.80;;
10166;SDS011;62970;53.130;8.244;2023-02-27T06:36:02;6.07;;;3.90;;
10166;SDS011;62970;53.130;8.244;2023-02-27T06:38:34;6.37;;;4.30;;
10166;SDS011;62970;53.130;8.244;2023-02-27T06:41:08;5.63;;;4.07;;
10166;SDS011;62970;53.130;8.244;2023-02-27T06:43:40;5.30;;;4.37;;
10166;SDS011;62970;53.130;8.244;2023-02-27T06:46:13;5.83;;;4.50;;
10166;SDS011;62970;53.130;8.244;2023-02-27T06:48:42;6.77;;;4.87;;
10166;SDS011;62970;53.130;8.244;2023-02-27T06:51:15;7.50;;;5.07;;
10166;SDS011;62970;53.130;8.244;2023-02-27T06:53:50;8.80;;;5.60;;
10166;SDS011;62970;53.130;8.244;2023-02-27T06:56:27;7.27;;;5.33;;
10166;SDS011;62970;53.130;8.244;2023-02-27T06:59:00;10.27;;;6.90;;
10166;SDS011;62970;53.130;8.244;2023-02-27T07:01:29;9.03;;;6.70;;
10166;SDS011;62970;53.130;8.244;2023-02-27T07:04:01;8.77;;;7.23;;
10166;SDS011;62970;53.130;8.244;2023-02-27T07:06:36;11.83;;;7.80;;
10166;SDS011;62970;53.130;8.244;2023-02-27T07:27:31;8.53;;;6.73;;
10166;SDS011;62970;53.130;8.244;2023-02-27T07:30:01;9.07;;;7.43;;
10166;SDS011;62970;53.130;8.244;2023-02-27T07:32:35;9.03;;;6.60;;
10166;SDS011;62970;53.130;8.244;2023-02-27T07:35:08;7.83;;;6.30;;
10166;SDS011;62970;53.130;8.244;2023-02-27T07:37:37;8.17;;;6.40;;
10166;SDS011;62970;53.130;8.244;2023-02-27T07:40:12;7.70;;;6.50;;
10166;SDS011;62970;53.130;8.244;2023-02-27T07:42:57;7.47;;;6.63;;
10166;SDS011;62970;53.130;8.244;2023-02-27T07:45:28;7.40;;;6.50;;
10166;SDS011;62970;53.130;8.244;2023-02-27T07:47:57;6.90;;;6.20;;
10166;SDS011;62970;53.130;8.244;2023-02-27T07:50:32;8.27;;;6.37;;
10166;SDS011;62970;53.130;8.244;2023-02-27T11:39:04;2.77;;;1.50;;
10166;SDS011;62970;53.130;8.244;2023-02-27T11:41:49;2.07;;;1.57;;
10166;SDS011;62970;53.130;8.244;2023-02-27T11:44:24;3.10;;;1.87;;
10166;SDS011;62970;53.130;8.244;2023-02-27T11:47:11;3.00;;;1.70;;
10166;SDS011;62970;53.130;8.244;2023-02-27T11:53:23;1.70;;;1.40;;
10166;SDS011;62970;53.130;8.244;2023-02-27T11:56:17;1.93;;;1.47;;
10166;SDS011;62970;53.130;8.244;2023-02-27T11:58:56;2.03;;;1.70;;
10166;SDS011;62970;53.130;8.244;2023-02-27T12:01:32;1.50;;;1.40;;
10166;SDS011;62970;53.130;8.244;2023-02-27T12:04:15;3.20;;;1.90;;
10166;SDS011;62970;53.130;8.244;2023-02-27T12:06:53;1.67;;;1.13;;
10166;SDS011;62970;53.130;8.244;2023-02-27T12:09:35;2.37;;;1.60;;
10166;SDS011;62970;53.130;8.244;2023-02-27T12:12:15;1.80;;;1.40;;
10166;SDS011;62970;53.130;8.244;2023-02-27T12:14:54;3.50;;;1.57;;
10166;SDS011;62970;53.130;8.244;2023-02-27T12:17:36;3.43;;;1.53;;
10166;SDS011;62970;53.130;8.244;2023-02-27T12:20:26;2.87;;;1.60;;
10166;SDS011;62970;53.130;8.244;2023-02-27T12:23:03;3.47;;;1.60;;
10166;SDS011;62970;53.130;8.244;2023-02-27T12:25:43;2.60;;;1.50;;
10166;SDS011;62970;53.130;8.244;2023-02-27T12:28:38;1.37;;;1.27;;
10166;SDS011;62970;53.130;8.244;2023-02-27T12:31:26;2.37;;;1.50;;
10166;SDS011;62970;53.130;8.244;2023-02-27T12:34:10;2.77;;;1.50;;
10166;SDS011;62970;53.130;8.244;2023-02-27T12:36:47;1.27;;;1.10;;
10166;SDS011;62970;53.130;8.244;2023-02-27T12:39:19;2.60;;;1.63;;
10166;SDS011;62970;53.130;8.244;2023-02-27T12:45:07;1.87;;;1.10;;
10166;SDS011;62970;53.130;8.244;2023-02-27T12:48:22;1.27;;;1.17;;
10166;SDS011;62970;53.130;8.244;2023-02-27T12:51:11;2.40;;;1.40;;
10166;SDS011;62970;53.130;8.244;2023-02-27T12:54:00;2.17;;;1.27;;
10166;SDS011;62970;53.130;8.244;2023-02-27T12:56:55;2.63;;;1.30;;
10166;SDS011;62970;53.130;8.244;2023-02-27T12:59:46;3.10;;;1.57;;
10166;SDS011;62970;53.130;8.244;2023-02-27T13:05:35;2.47;;;1.47;;
10166;SDS011;62970;53.130;8.244;2023-02-27T13:08:18;3.90;;;1.40;;
10166;SDS011;62970;53.130;8.244;2023-02-27T13:11:20;2.90;;;1.30;;
10166;SDS011;62970;53.130;8.244;2023-02-27T13:13:59;2.23;;;1.37;;
10166;SDS011;62970;53.130;8.244;2023-02-27T13:16:35;1.30;;;1.20;;
10166;SDS011;62970;53.130;8.244;2023-02-27T13:19:16;3.07;;;1.40;;
10166;SDS011;62970;53.130;8.244;2023-02-27T13:21:58;2.33;;;1.47;;
10166;SDS011;62970;53.130;8.244;2023-02-27T13:24:42;2.40;;;1.70;;
10166;SDS011;62970;53.130;8.244;2023-02-27T13:27:18;1.40;;;1.20;;
10166;SDS011;62970;53.130;8.244;2023-02-27T13:30:09;1.20;;;1.10;;
10166;SDS011;62970;53.130;8.244;2023-02-27T13:32:47;3.00;;;1.10;;
10166;SDS011;62970;53.130;8.244;2023-02-27T13:35:44;2.10;;;1.27;;
10166;SDS011;62970;53.130;8.244;2023-02-27T13:38:31;1.60;;;1.50;;
10166;SDS011;62970;53.130;8.244;2023-02-27T13:53:20;1.23;;;1.00;;
10166;SDS011;62970;53.130;8.244;2023-02-27T13:55:54;1.80;;;1.10;;
10166;SDS011;62970;53.130;8.244;2023-02-27T13:58:46;0.97;;;0.90;;
10166;SDS011;62970;53.130;8.244;2023-02-27T14:01:16;1.10;;;1.00;;
10166;SDS011;62970;53.130;8.244;2023-02-27T14:03:51;2.40;;;1.00;;
10166;SDS011;62970;53.130;8.244;2023-02-27T14:06:26;2.37;;;1.00;;
10166;SDS011;62970;53.130;8.244;2023-02-27T14:08:56;2.57;;;1.40;;
10166;SDS011;62970;53.130;8.244;2023-02-27T14:11:27;1.47;;;1.37;;
10166;SDS011;62970;53.130;8.244;2023-02-27T14:14:07;1.70;;;1.17;;
10166;SDS011;62970;53.130;8.244;2023-02-27T14:17:00;1.73;;;1.30;;
10166;SDS011;62970;53.130;8.244;2023-02-27T14:25:46;0.97;;;0.90;;
10166;SDS011;62970;53.130;8.244;2023-02-27T14:28:22;1.73;;;1.00;;
10166;SDS011;62970;53.130;8.244;2023-02-27T14:30:57;1.63;;;1.20;;
10166;SDS011;62970;53.130;8.244;2023-02-27T14:33:33;2.53;;;1.27;;
10166;SDS011;62970;53.130;8.244;2023-02-27T14:36:14;1.63;;;1.10;;
10166;SDS011;62970;53.130;8.244;2023-02-27T14:38:53;1.23;;;1.13;;
10166;SDS011;62970;53.130;8.244;2023-02-27T14:41:29;1.00;;;1.00;;
10166;SDS011;62970;53.130;8.244;2023-02-27T14:44:16;1.47;;;1.20;;
10166;SDS011;62970;53.130;8.244;2023-02-27T14:46:48;1.53;;;1.03;;
10166;SDS011;62970;53.130;8.244;2023-02-27T14:49:20;2.20;;;1.27;;
10166;SDS011;62970;53.130;8.244;2023-02-27T14:51:53;2.27;;;1.37;;
10166;SDS011;62970;53.130;8.244;2023-02-27T14:54:26;1.53;;;1.40;;
10166;SDS011;62970;53.130;8.244;2023-02-27T14:56:57;1.60;;;1.30;;
10166;SDS011;62970;53.130;8.244;2023-02-27T14:59:31;4.67;;;1.67;;
10166;SDS011;62970;53.130;8.244;2023-02-27T15:02:09;1.67;;;1.40;;
10166;SDS011;62970;53.130;8.244;2023-02-27T15:04:51;1.50;;;1.20;;
10166;SDS011;62970;53.130;8.244;2023-02-27T15:07:40;1.73;;;1.20;;
10166;SDS011;62970;53.130;8.244;2023-02-27T15:10:25;2.80;;;1.40;;
10166;SDS011;62970;53.130;8.244;2023-02-27T15:12:57;2.60;;;1.83;;
10166;SDS011;62970;53.130;8.244;2023-02-27T15:15:28;2.17;;;1.30;;
10166;SDS011;62970;53.130;8.244;2023-02-27T15:17:58;1.63;;;1.23;;
10166;SDS011;62970;53.130;8.244;2023-02-27T15:20:29;2.20;;;1.37;;
10166;SDS011;62970;53.130;8.244;2023-02-27T15:23:18;2.23;;;1.30;;
10166;SDS011;62970;53.130;8.244;2023-02-27T15:25:57;2.30;;;1.40;;
10166;SDS011;62970;53.130;8.244;2023-02-27T15:28:29;3.93;;;1.30;;
10166;SDS011;62970;53.130;8.244;2023-02-27T15:31:06;2.23;;;1.20;;
10166;SDS011;62970;53.130;8.244;2023-02-27T15:33:40;1.73;;;1.23;;
10166;SDS011;62970;53.130;8.244;2023-02-27T15:36:15;2.40;;;1.10;;
10166;SDS011;62970;53.130;8.244;2023-02-27T15:39:01;2.90;;;1.13;;
10166;SDS011;62970;53.130;8.244;2023-02-27T15:41:54;1.47;;;1.10;;
10166;SDS011;62970;53.130;8.244;2023-02-27T15:44:28;1.40;;;1.10;;
10166;SDS011;62970;53.130;8.244;2023-02-27T15:47:04;1.43;;;1.13;;
10166;SDS011;62970;53.130;8.244;2023-02-27T15:49:35;1.90;;;1.47;;
10166;SDS011;62970;53.130;8.244;2023-02-27T15:52:11;1.20;;;1.10;;
10166;SDS011;62970;53.130;8.244;2023-02-27T15:54:45;2.53;;;1.10;;
10166;SDS011;62970;53.130;8.244;2023-02-27T15:57:21;1.43;;;1.20;;
10166;SDS011;62970;53.130;8.244;2023-02-27T15:59:51;2.23;;;1.50;;
10166;SDS011;62970;53.130;8.244;2023-02-27T16:02:26;1.80;;;1.27;;
10166;SDS011;62970;53.130;8.244;2023-02-27T16:04:59;2.80;;;1.40;;
10166;SDS011;62970;53.130;8.244;2023-02-27T16:07:29;3.87;;;1.70;;
10166;SDS011;62970;53.130;8.244;2023-02-27T16:10:07;2.47;;;1.70;;
10166;SDS011;62970;53.130;8.244;2023-02-27T16:12:48;1.73;;;1.33;;
10166;SDS011;62970;53.130;8.244;2023-02-27T16:15:22;2.40;;;1.40;;
10166;SDS011;62970;53.130;8.244;2023-02-27T16:17:58;3.60;;;1.40;;
10166;SDS011;62970;53.130;8.244;2023-02-27T16:20:51;1.70;;;1.50;;
10166;SDS011;62970;53.130;8.244;2023-02-27T16:23:23;1.87;;;1.53;;
10166;SDS011;62970;53.130;8.244;2023-02-27T16:26:00;3.00;;;2.30;;
10166;SDS011;62970;53.130;8.244;2023-02-27T16:28:38;2.77;;;2.20;;
10166;SDS011;62970;53.130;8.244;2023-02-27T16:31:18;2.83;;;1.67;;
10166;SDS011;62970;53.130;8.244;2023-02-27T16:33:54;1.63;;;1.50;;
10166;SDS011;62970;53.130;8.244;2023-02-27T16:36:26;1.87;;;1.67;;
10166;SDS011;62970;53.130;8.244;2023-02-27T16:39:12;4.23;;;2.10;;
10166;SDS011;62970;53.130;8.244;2023-02-27T16:41:41;2.63;;;2.03;;
10166;SDS011;62970;53.130;8.244;2023-02-27T16:44:14;3.20;;;2.17;;
10166;SDS011;62970;53.130;8.244;2023-02-27T16:46:45;2.93;;;2.00;;
10166;SDS011;62970;53.130;8.244;2023-02-27T16:49:18;3.10;;;1.90;;
10166;SDS011;62970;53.130;8.244;2023-02-27T16:51:49;3.17;;;1.97;;
10166;SDS011;62970;53.130;8.244;2023-02-27T16:54:23;2.87;;;1.80;;
10166;SDS011;62970;53.130;8.244;2023-02-27T16:56:52;1.80;;;1.70;;
10166;SDS011;62970;53.130;8.244;2023-02-27T16:59:38;2.57;;;1.57;;
10166;SDS011;62970;53.130;8.244;2023-02-27T17:02:11;1.83;;;1.70;;
10166;SDS011;62970;53.130;8.244;2023-02-27T17:04:43;2.27;;;2.00;;
10166;SDS011;62970;53.130;8.244;2023-02-27T17:07:14;2.80;;;1.70;;
10166;SDS011;62970;53.130;8.244;2023-02-27T17:09:47;4.13;;;2.00;;
10166;SDS011;62970;53.130;8.244;2023-02-27T17:12:19;2.53;;;1.67;;
10166;SDS011;62970;53.130;8.244;2023-02-27T17:14:50;4.97;;;1.60;;
10166;SDS011;62970;53.130;8.244;2023-02-27T17:17:20;2.60;;;1.57;;
10166;SDS011;62970;53.130;8.244;2023-02-27T17:19:49;1.80;;;1.60;;
10166;SDS011;62970;53.130;8.244;2023-02-27T17:22:21;2.93;;;1.63;;
10166;SDS011;62970;53.130;8.244;2023-02-27T17:24:50;2.30;;;1.60;;
10166;SDS011;62970;53.130;8.244;2023-02-27T17:27:19;3.10;;;1.50;;
10166;SDS011;62970;53.130;8.244;2023-02-27T17:29:51;3.30;;;1.80;;
10166;SDS011;62970;53.130;8.244;2023-02-27T17:32:21;3.73;;;1.60;;
10166;SDS011;62970;53.130;8.244;2023-02-27T17:34:51;3.10;;;1.70;;
10166;SDS011;62970;53.130;8.244;2023-02-27T17:37:20;2.67;;;1.60;;
10166;SDS011;62970;53.130;8.244;2023-02-27T17:39:51;2.10;;;1.50;;
10166;SDS011;62970;53.130;8.244;2023-02-27T17:42:20;1.83;;;1.20;;
10166;SDS011;62970;53.130;8.244;2023-02-27T17:44:53;2.77;;;1.37;;
10166;SDS011;62970;53.130;8.244;2023-02-27T17:47:22;2.20;;;1.30;;
10166;SDS011;62970;53.130;8.244;2023-02-27T17:49:52;2.07;;;1.47;;
10166;SDS011;62970;53.130;8.244;2023-02-27T17:52:21;1.90;;;1.37;;
10166;SDS011;62970;53.130;8.244;2023-02-27T17:54:51;1.70;;;1.50;;
10166;SDS011;62970;53.130;8.244;2023-02-27T17:57:20;2.57;;;1.53;;
10166;SDS011;62970;53.130;8.244;2023-02-27T17:59:53;1.67;;;1.53;;
10166;SDS011;62970;53.130;8.244;2023-02-27T18:02:23;1.73;;;1.60;;
10166;SDS011;62970;53.130;8.244;2023-02-27T18:04:52;2.17;;;1.50;;
10166;SDS011;62970;53.130;8.244;2023-02-27T18:07:22;2.03;;;1.60;;
10166;SDS011;62970;53.130;8.244;2023-02-27T18:09:51;2.03;;;1.50;;
10166;SDS011;62970;53.130;8.244;2023-02-27T18:12:22;2.80;;;1.70;;
10166;SDS011;62970;53.130;8.244;2023-02-27T18:14:55;2.37;;;1.73;;
10166;SDS011;62970;53.130;8.244;2023-02-27T18:17:25;3.43;;;2.10;;
10166;SDS011;62970;53.130;8.244;2023-02-27T18:19:56;3.47;;;2.07;;
10166;SDS011;62970;53.130;8.244;2023-02-27T18:22:26;1.67;;;1.50;;
10166;SDS011;62970;53.130;8.244;2023-02-27T18:24:57;2.77;;;1.97;;
10166;SDS011;62970;53.130;8.244;2023-02-27T18:27:26;3.67;;;2.30;;
10166;SDS011;62970;53.130;8.244;2023-02-27T18:29:59;4.17;;;2.80;;
10166;SDS011;62970;53.130;8.244;2023-02-27T18:32:28;2.30;;;2.10;;
10166;SDS011;62970;53.130;8.244;2023-02-27T18:34:57;3.30;;;2.63;;
10166;SDS011;62970;53.130;8.244;2023-02-27T18:37:26;3.57;;;2.50;;
10166;SDS011;62970;53.130;8.244;2023-02-27T18:39:55;2.63;;;1.97;;
10166;SDS011;62970;53.130;8.244;2023-02-27T18:42:25;2.40;;;1.97;;
10166;SDS011;62970;53.130;8.244;2023-02-27T18:44:54;3.27;;;2.23;;
10166;SDS011;62970;53.130;8.244;2023-02-27T18:47:26;4.07;;;2.97;;
10166;SDS011;62970;53.130;8.244;2023-02-27T18:49:55;3.00;;;2.70;;
10166;SDS011;62970;53.130;8.244;2023-02-27T18:52:26;6.43;;;3.27;;
10166;SDS011;62970;53.130;8.244;2023-02-27T18:54:55;4.90;;;3.60;;
10166;SDS011;62970;53.130;8.244;2023-02-27T18:57:26;10.53;;;7.03;;
10166;SDS011;62970;53.130;8.244;2023-02-27T18:59:55;10.60;;;6.77;;
10166;SDS011;62970;53.130;8.244;2023-02-27T19:02:27;17.63;;;10.83;;
10166;SDS011;62970;53.130;8.244;2023-02-27T19:04:57;21.93;;;13.90;;
10166;SDS011;62970;53.130;8.244;2023-02-27T19:07:29;28.00;;;18.27;;
10166;SDS011;62970;53.130;8.244;2023-02-27T19:10:13;29.67;;;18.20;;
10166;SDS011;62970;53.130;8.244;2023-02-27T19:12:45;28.37;;;17.70;;
10166;SDS011;62970;53.130;8.244;2023-02-27T19:15:20;30.53;;;18.90;;
10166;SDS011;62970;53.130;8.244;2023-02-27T19:17:53;30.07;;;20.00;;
10166;SDS011;62970;53.130;8.244;2023-02-27T19:20:23;30.10;;;20.27;;
10166;SDS011;62970;53.130;8.244;2023-02-27T19:22:52;26.30;;;17.17;;
10166;SDS011;62970;53.130;8.244;2023-02-27T19:25:22;23.30;;;15.53;;
10166;SDS011;62970;53.130;8.244;2023-02-27T19:27:51;17.73;;;12.40;;
10166;SDS011;62970;53.130;8.244;2023-02-27T19:30:22;19.07;;;13.20;;
10166;SDS011;62970;53.130;8.244;2023-02-27T19:32:57;16.97;;;11.13;;
10166;SDS011;62970;53.130;8.244;2023-02-27T19:35:26;12.93;;;9.67;;
10166;SDS011;62970;53.130;8.244;2023-02-27T19:37:56;11.23;;;7.97;;
10166;SDS011;62970;53.130;8.244;2023-02-27T19:40:25;11.63;;;7.50;;
10166;SDS011;62970;53.130;8.244;2023-02-27T19:42:55;10.57;;;7.30;;
10166;SDS011;62970;53.130;8.244;2023-02-27T19:45:24;8.53;;;6.93;;
10166;SDS011;62970;53.130;8.244;2023-02-27T19:47:57;9.03;;;6.13;;
10166;SDS011;62970;53.130;8.244;2023-02-27T19:50:26;9.70;;;6.33;;
10166;SDS011;62970;53.130;8.244;2023-02-27T19:52:58;16.57;;;11.07;;
10166;SDS011;62970;53.130;8.244;2023-02-27T19:55:29;17.27;;;11.33;;
10166;SDS011;62970;53.130;8.244;2023-02-27T19:58:14;18.37;;;12.43;;
10166;SDS011;62970;53.130;8.244;2023-02-27T20:00:44;16.17;;;10.63;;
10166;SDS011;62970;53.130;8.244;2023-02-27T20:03:16;11.50;;;8.27;;
10166;SDS011;62970;53.130;8.244;2023-02-27T20:05:46;8.30;;;5.97;;
10166;SDS011;62970;53.130;8.244;2023-02-27T20:08:17;6.50;;;4.60;;
10166;SDS011;62970;53.130;8.244;2023-02-27T20:10:53;10.90;;;7.30;;
10166;SDS011;62970;53.130;8.244;2023-02-27T20:13:23;18.53;;;16.23;;
10166;SDS011;62970;53.130;8.244;2023-02-27T20:15:54;14.07;;;10.70;;
10166;SDS011;62970;53.130;8.244;2023-02-27T20:18:27;10.87;;;7.50;;
10166;SDS011;62970;53.130;8.244;2023-02-27T20:20:59;5.87;;;4.87;;
10166;SDS011;62970;53.130;8.244;2023-02-27T20:23:32;7.23;;;4.17;;
10166;SDS011;62970;53.130;8.244;2023-02-27T20:26:11;5.80;;;4.43;;
10166;SDS011;62970;53.130;8.244;2023-02-27T20:28:46;5.83;;;4.27;;
10166;SDS011;62970;53.130;8.244;2023-02-27T20:31:18;4.93;;;3.43;;
10166;SDS011;62970;53.130;8.244;2023-02-27T20:33:52;4.50;;;3.23;;
10166;SDS011;62970;53.130;8.244;2023-02-27T20:36:25;3.70;;;2.73;;